sensor_id;sensor_type;location;lat;lon;timestamp;pressure;altitude;pressure_sealevel;temperature;humidity
56568;BME280;42456;49.956;20.004;2022-09-02T00:01:12;98792.45;;;8.78;75.07
56568;BME280;42456;49.956;20.004;2022-09-02T00:03:36;98792.77;;;8.77;75.27
56568;BME280;42456;49.956;20.004;2022-09-02T00:06:02;98792.59;;;8.73;75.33
56568;BME280;42456;49.956;20.004;2022-09-02T00:08:30;98788.30;;;8.72;75.37
56568;BME280;42456;49.956;20.004;2022-09-02T00:10:58;98788.61;;;8.71;75.45
56568;BME280;42456;49.956;20.004;2022-09-02T00:13:27;98790.52;;;8.70;75.48
56568;BME280;42456;49.956;20.004;2022-09-02T00:15:54;98788.98;;;8.67;75.45
56568;BME280;42456;49.956;20.004;2022-09-02T00:18:20;98784.77;;;8.63;75.56
56568;BME280;42456;49.956;20.004;2022-09-02T00:20:48;98792.07;;;8.60;75.53
56568;BME280;42456;49.956;20.004;2022-09-02T00:23:15;98786.24;;;8.58;75.50
56568;BME280;42456;49.956;20.004;2022-09-02T00:25:42;98790.87;;;8.55;75.46
56568;BME280;42456;49.956;20.004;2022-09-02T00:28:11;98788.22;;;8.53;75.42
56568;BME280;42456;49.956;20.004;2022-09-02T00:30:38;98786.95;;;8.50;75.52
56568;BME280;42456;49.956;20.004;2022-09-02T00:33:05;98786.72;;;8.49;75.56
56568;BME280;42456;49.956;20.004;2022-09-02T00:35:32;98786.22;;;8.47;75.58
56568;BME280;42456;49.956;20.004;2022-09-02T00:37:59;98787.05;;;8.45;75.66
56568;BME280;42456;49.956;20.004;2022-09-02T00:40:27;98781.26;;;8.41;75.62
56568;BME280;42456;49.956;20.004;2022-09-02T00:42:54;98786.18;;;8.36;75.58
56568;BME280;42456;49.956;20.004;2022-09-02T00:45:21;98779.84;;;8.32;75.60
56568;BME280;42456;49.956;20.004;2022-09-02T00:47:48;98776.20;;;8.28;75.56
56568;BME280;42456;49.956;20.004;2022-09-02T00:50:20;98774.42;;;8.24;75.57
56568;BME280;42456;49.956;20.004;2022-09-02T00:52:54;98775.76;;;8.21;75.57
56568;BME280;42456;49.956;20.004;2022-09-02T00:55:25;98773.45;;;8.17;75.58
56568;BME280;42456;49.956;20.004;2022-09-02T00:58:04;98775.63;;;8.15;75.61
56568;BME280;42456;49.956;20.004;2022-09-02T01:00:37;98775.39;;;8.14;75.74
56568;BME280;42456;49.956;20.004;2022-09-02T01:03:09;98770.62;;;8.11;75.85
56568;BME280;42456;49.956;20.004;2022-09-02T01:05:41;98769.35;;;8.09;75.94
56568;BME280;42456;49.956;20.004;2022-09-02T01:08:17;98765.67;;;8.05;75.92
56568;BME280;42456;49.956;20.004;2022-09-02T01:10:46;98768.41;;;8.02;75.91
56568;BME280;42456;49.956;20.004;2022-09-02T01:13:16;98765.52;;;7.99;75.99
56568;BME280;42456;49.956;20.004;2022-09-02T01:15:47;98769.84;;;7.97;76.13
56568;BME280;42456;49.956;20.004;2022-09-02T01:18:21;98770.44;;;7.94;76.12
56568;BME280;42456;49.956;20.004;2022-09-02T01:20:48;98768.06;;;7.93;76.17
56568;BME280;42456;49.956;20.004;2022-09-02T01:23:15;98767.89;;;7.89;76.24
56568;BME280;42456;49.956;20.004;2022-09-02T01:25:42;98766.28;;;7.88;76.29
56568;BME280;42456;49.956;20.004;2022-09-02T01:28:13;98768.78;;;7.85;76.25
56568;BME280;42456;49.956;20.004;2022-09-02T01:30:48;98764.80;;;7.82;76.28
56568;BME280;42456;49.956;20.004;2022-09-02T01:33:13;98768.34;;;7.80;76.31
56568;BME280;42456;49.956;20.004;2022-09-02T01:35:39;98770.51;;;7.78;76.31
56568;BME280;42456;49.956;20.004;2022-09-02T01:38:06;98771.41;;;7.73;76.34
56568;BME280;42456;49.956;20.004;2022-09-02T01:40:33;98773.58;;;7.71;76.37
56568;BME280;42456;49.956;20.004;2022-09-02T01:43:05;98769.32;;;7.70;76.42
56568;BME280;42456;49.956;20.004;2022-09-02T01:45:35;98767.23;;;7.67;76.52
56568;BME280;42456;49.956;20.004;2022-09-02T01:48:03;98767.00;;;7.66;76.55
56568;BME280;42456;49.956;20.004;2022-09-02T01:50:31;98770.78;;;7.65;76.55
56568;BME280;42456;49.956;20.004;2022-09-02T01:52:59;98779.11;;;7.64;76.51
56568;BME280;42456;49.956;20.004;2022-09-02T01:55:27;98775.69;;;7.61;76.54
56568;BME280;42456;49.956;20.004;2022-09-02T01:57:54;98764.23;;;7.58;76.62
56568;BME280;42456;49.956;20.004;2022-09-02T02:00:21;98768.27;;;7.55;76.73
56568;BME280;42456;49.956;20.004;2022-09-02T02:02:47;98767.50;;;7.55;76.80
56568;BME280;42456;49.956;20.004;2022-09-02T02:05:14;98773.74;;;7.50;76.69
56568;BME280;42456;49.956;20.004;2022-09-02T02:07:41;98767.08;;;7.48;76.63
56568;BME280;42456;49.956;20.004;2022-09-02T02:10:09;98766.60;;;7.46;76.78
56568;BME280;42456;49.956;20.004;2022-09-02T02:12:37;98761.84;;;7.43;76.97
56568;BME280;42456;49.956;20.004;2022-09-02T02:15:08;98766.69;;;7.41;77.01
56568;BME280;42456;49.956;20.004;2022-09-02T02:17:39;98767.52;;;7.39;76.95
56568;BME280;42456;49.956;20.004;2022-09-02T02:20:07;98768.38;;;7.37;77.01
56568;BME280;42456;49.956;20.004;2022-09-02T02:22:35;98767.03;;;7.37;77.09
56568;BME280;42456;49.956;20.004;2022-09-02T02:25:04;98771.58;;;7.36;77.16
56568;BME280;42456;49.956;20.004;2022-09-02T02:27:31;98767.36;;;7.33;77.09
56568;BME280;42456;49.956;20.004;2022-09-02T02:29:58;98768.45;;;7.32;77.13
56568;BME280;42456;49.956;20.004;2022-09-02T02:32:24;98767.41;;;7.30;77.23
56568;BME280;42456;49.956;20.004;2022-09-02T02:34:51;98770.89;;;7.31;77.29
56568;BME280;42456;49.956;20.004;2022-09-02T02:37:19;98766.37;;;7.29;77.30
56568;BME280;42456;49.956;20.004;2022-09-02T02:39:45;98762.66;;;7.27;77.31
56568;BME280;42456;49.956;20.004;2022-09-02T02:42:11;98757.89;;;7.24;77.28
56568;BME280;42456;49.956;20.004;2022-09-02T02:44:38;98754.47;;;7.21;77.22
56568;BME280;42456;49.956;20.004;2022-09-02T02:47:06;98755.30;;;7.19;77.14
56568;BME280;42456;49.956;20.004;2022-09-02T02:49:38;98751.63;;;7.15;77.19
56568;BME280;42456;49.956;20.004;2022-09-02T02:52:06;98758.37;;;7.13;77.23
56568;BME280;42456;49.956;20.004;2022-09-02T02:54:34;98755.72;;;7.10;77.30
56568;BME280;42456;49.956;20.004;2022-09-02T02:57:01;98753.34;;;7.09;77.33
56568;BME280;42456;49.956;20.004;2022-09-02T02:59:29;98752.86;;;7.07;77.39
56568;BME280;42456;49.956;20.004;2022-09-02T03:01:56;98751.82;;;7.05;77.49
56568;BME280;42456;49.956;20.004;2022-09-02T03:04:22;98750.50;;;7.03;77.52
56568;BME280;42456;49.956;20.004;2022-09-02T03:06:49;98747.08;;;7.00;77.45
56568;BME280;42456;49.956;20.004;2022-09-02T03:09:15;98748.18;;;6.99;77.51
56568;BME280;42456;49.956;20.004;2022-09-02T03:11:44;98752.48;;;6.97;77.46
56568;BME280;42456;49.956;20.004;2022-09-02T03:14:11;98751.49;;;6.93;77.40
56568;BME280;42456;49.956;20.004;2022-09-02T03:16:38;98747.50;;;6.91;77.49
56568;BME280;42456;49.956;20.004;2022-09-02T03:19:06;98755.52;;;6.91;77.61
56568;BME280;42456;49.956;20.004;2022-09-02T03:21:33;98755.58;;;6.88;77.60
56568;BME280;42456;49.956;20.004;2022-09-02T03:23:59;98749.72;;;6.86;77.67
56568;BME280;42456;49.956;20.004;2022-09-02T03:26:25;98751.05;;;6.86;77.69
56568;BME280;42456;49.956;20.004;2022-09-02T03:28:55;98758.01;;;6.87;77.71
56568;BME280;42456;49.956;20.004;2022-09-02T03:31:23;98752.95;;;6.86;77.63
56568;BME280;42456;49.956;20.004;2022-09-02T03:33:50;98751.62;;;6.86;77.67
56568;BME280;42456;49.956;20.004;2022-09-02T03:36:24;98756.38;;;6.89;77.78
56568;BME280;42456;49.956;20.004;2022-09-02T03:38:52;98752.08;;;6.90;77.91
56568;BME280;42456;49.956;20.004;2022-09-02T03:41:19;98748.25;;;6.94;77.96
56568;BME280;42456;49.956;20.004;2022-09-02T03:43:46;98751.15;;;6.97;77.96
56568;BME280;42456;49.956;20.004;2022-09-02T03:46:13;98758.83;;;7.01;78.15
56568;BME280;42456;49.956;20.004;2022-09-02T03:48:39;98754.49;;;7.05;78.35
56568;BME280;42456;49.956;20.004;2022-09-02T03:51:06;98757.92;;;7.08;78.42
56568;BME280;42456;49.956;20.004;2022-09-02T03:53:32;98758.67;;;7.11;78.48
56568;BME280;42456;49.956;20.004;2022-09-02T03:56:07;98753.80;;;7.13;78.50
56568;BME280;42456;49.956;20.004;2022-09-02T03:58:36;98767.44;;;7.14;78.54
56568;BME280;42456;49.956;20.004;2022-09-02T04:01:03;98765.30;;;7.14;78.54
56568;BME280;42456;49.956;20.004;2022-09-02T04:03:30;98762.68;;;7.11;78.55
56568;BME280;42456;49.956;20.004;2022-09-02T04:05:56;98766.18;;;7.09;78.60
56568;BME280;42456;49.956;20.004;2022-09-02T04:08:24;98768.86;;;7.09;78.64
56568;BME280;42456;49.956;20.004;2022-09-02T04:10:50;98773.41;;;7.09;78.71
56568;BME280;42456;49.956;20.004;2022-09-02T04:13:17;98771.83;;;7.08;78.90
56568;BME280;42456;49.956;20.004;2022-09-02T04:15:45;98768.86;;;7.09;79.02
56568;BME280;42456;49.956;20.004;2022-09-02T04:18:14;98766.18;;;7.09;78.91
56568;BME280;42456;49.956;20.004;2022-09-02T04:20:42;98766.72;;;7.09;79.01
56568;BME280;42456;49.956;20.004;2022-09-02T04:23:09;98771.00;;;7.10;79.14
56568;BME280;42456;49.956;20.004;2022-09-02T04:25:40;98776.83;;;7.12;79.20
56568;BME280;42456;49.956;20.004;2022-09-02T04:28:08;98781.11;;;7.13;79.16
56568;BME280;42456;49.956;20.004;2022-09-02T04:30:37;98785.36;;;7.14;79.09
56568;BME280;42456;49.956;20.004;2022-09-02T04:33:05;98785.28;;;7.19;79.14
56568;BME280;42456;49.956;20.004;2022-09-02T04:35:32;98784.64;;;7.24;79.24
56568;BME280;42456;49.956;20.004;2022-09-02T04:38:00;98790.91;;;7.33;79.39
56568;BME280;42456;49.956;20.004;2022-09-02T04:40:28;98787.85;;;7.40;79.40
56568;BME280;42456;49.956;20.004;2022-09-02T04:42:56;98790.92;;;7.47;79.26
56568;BME280;42456;49.956;20.004;2022-09-02T04:45:22;98783.34;;;7.51;79.15
56568;BME280;42456;49.956;20.004;2022-09-02T04:47:48;98787.75;;;7.58;79.18
56568;BME280;42456;49.956;20.004;2022-09-02T04:50:15;98785.62;;;7.71;79.31
56568;BME280;42456;49.956;20.004;2022-09-02T04:52:41;98786.96;;;7.85;79.56
56568;BME280;42456;49.956;20.004;2022-09-02T04:55:08;98784.54;;;8.00;79.51
56568;BME280;42456;49.956;20.004;2022-09-02T04:57:35;98789.45;;;8.20;79.72
56568;BME280;42456;49.956;20.004;2022-09-02T05:00:05;98789.06;;;8.40;79.70
56568;BME280;42456;49.956;20.004;2022-09-02T05:02:32;98784.09;;;8.58;79.56
56568;BME280;42456;49.956;20.004;2022-09-02T05:04:58;98790.34;;;8.78;79.63
56568;BME280;42456;49.956;20.004;2022-09-02T05:07:25;98782.97;;;8.94;79.47
56568;BME280;42456;49.956;20.004;2022-09-02T05:09:58;98786.05;;;9.10;79.32
56568;BME280;42456;49.956;20.004;2022-09-02T05:12:24;98782.95;;;9.27;79.36
56568;BME280;42456;49.956;20.004;2022-09-02T05:14:53;98784.05;;;9.46;79.28
56568;BME280;42456;49.956;20.004;2022-09-02T05:17:22;98788.66;;;9.65;79.16
56568;BME280;42456;49.956;20.004;2022-09-02T05:19:48;98783.63;;;9.72;78.82
56568;BME280;42456;49.956;20.004;2022-09-02T05:22:14;98780.94;;;9.72;78.42
56568;BME280;42456;49.956;20.004;2022-09-02T05:24:41;98776.68;;;9.71;78.22
56568;BME280;42456;49.956;20.004;2022-09-02T05:27:08;98777.96;;;9.82;78.32
56568;BME280;42456;49.956;20.004;2022-09-02T05:29:34;98778.34;;;9.98;78.31
56568;BME280;42456;49.956;20.004;2022-09-02T05:32:01;98773.05;;;10.15;78.48
56568;BME280;42456;49.956;20.004;2022-09-02T05:34:28;98778.29;;;10.37;78.75
56568;BME280;42456;49.956;20.004;2022-09-02T05:36:55;98775.45;;;10.59;78.65
56568;BME280;42456;49.956;20.004;2022-09-02T05:39:21;98780.81;;;10.93;78.45
56568;BME280;42456;49.956;20.004;2022-09-02T05:41:48;98780.81;;;10.93;78.45
56568;BME280;42456;49.956;20.004;2022-09-02T05:44:14;98777.50;;;11.36;78.43
56568;BME280;42456;49.956;20.004;2022-09-02T05:46:40;98777.50;;;11.36;78.43
56568;BME280;42456;49.956;20.004;2022-09-02T05:49:07;98776.95;;;11.60;78.06
56568;BME280;42456;49.956;20.004;2022-09-02T05:51:51;98771.48;;;11.85;78.23
56568;BME280;42456;49.956;20.004;2022-09-02T05:54:23;98767.80;;;12.33;76.89
56568;BME280;42456;49.956;20.004;2022-09-02T05:56:56;98740.82;;;12.33;76.89
56568;BME280;42456;49.956;20.004;2022-09-02T05:59:26;98771.63;;;12.53;76.71
56568;BME280;42456;49.956;20.004;2022-09-02T06:01:55;98774.75;;;12.69;75.99
56568;BME280;42456;49.956;20.004;2022-09-02T06:04:22;98772.02;;;12.90;75.19
56568;BME280;42456;49.956;20.004;2022-09-02T06:06:49;98774.84;;;13.14;74.62
56568;BME280;42456;49.956;20.004;2022-09-02T06:09:18;98772.20;;;13.32;74.07
56568;BME280;42456;49.956;20.004;2022-09-02T06:11:47;98775.61;;;13.47;73.59
56568;BME280;42456;49.956;20.004;2022-09-02T06:14:17;98774.63;;;13.64;72.97
56568;BME280;42456;49.956;20.004;2022-09-02T06:16:47;98770.58;;;13.76;72.58
56568;BME280;42456;49.956;20.004;2022-09-02T06:19:15;98772.28;;;13.86;72.49
56568;BME280;42456;49.956;20.004;2022-09-02T06:21:41;98772.83;;;13.98;71.88
56568;BME280;42456;49.956;20.004;2022-09-02T06:24:09;98779.16;;;14.08;71.82
56568;BME280;42456;49.956;20.004;2022-09-02T06:26:39;98785.80;;;14.16;71.22
56568;BME280;42456;49.956;20.004;2022-09-02T06:29:07;98782.28;;;14.22;71.08
56568;BME280;42456;49.956;20.004;2022-09-02T06:31:35;98781.53;;;14.33;71.55
56568;BME280;42456;49.956;20.004;2022-09-02T06:34:02;98778.91;;;14.43;70.98
56568;BME280;42456;49.956;20.004;2022-09-02T06:36:30;98782.60;;;14.56;70.78
56568;BME280;42456;49.956;20.004;2022-09-02T06:38:58;98791.03;;;14.67;70.08
56568;BME280;42456;49.956;20.004;2022-09-02T06:41:28;98787.41;;;14.75;69.92
56568;BME280;42456;49.956;20.004;2022-09-02T06:43:58;98791.23;;;14.86;69.61
56568;BME280;42456;49.956;20.004;2022-09-02T06:46:32;98792.75;;;14.99;69.33
56568;BME280;42456;49.956;20.004;2022-09-02T06:49:03;98795.41;;;15.11;69.23
56568;BME280;42456;49.956;20.004;2022-09-02T06:51:40;98793.47;;;15.18;68.08
56568;BME280;42456;49.956;20.004;2022-09-02T06:54:11;98799.63;;;15.24;68.01
56568;BME280;42456;49.956;20.004;2022-09-02T06:56:40;98795.53;;;15.30;67.67
56568;BME280;42456;49.956;20.004;2022-09-02T06:59:07;98794.42;;;15.37;67.28
56568;BME280;42456;49.956;20.004;2022-09-02T07:01:33;98795.85;;;15.41;67.33
56568;BME280;42456;49.956;20.004;2022-09-02T07:04:01;98796.03;;;15.48;67.27
56568;BME280;42456;49.956;20.004;2022-09-02T07:06:45;98802.77;;;15.54;67.08
56568;BME280;42456;49.956;20.004;2022-09-02T07:09:16;98795.05;;;15.62;66.98
56568;BME280;42456;49.956;20.004;2022-09-02T07:11:46;98790.59;;;15.69;66.33
56568;BME280;42456;49.956;20.004;2022-09-02T07:14:18;98796.19;;;15.76;66.02
56568;BME280;42456;49.956;20.004;2022-09-02T07:16:51;98788.29;;;15.77;66.09
56568;BME280;42456;49.956;20.004;2022-09-02T07:19:16;98790.47;;;15.87;66.26
56568;BME280;42456;49.956;20.004;2022-09-02T07:21:46;98791.98;;;15.94;65.60
56568;BME280;42456;49.956;20.004;2022-09-02T07:24:14;98792.23;;;15.95;65.21
56568;BME280;42456;49.956;20.004;2022-09-02T07:26:42;98790.94;;;15.99;64.86
56568;BME280;42456;49.956;20.004;2022-09-02T07:29:09;98795.55;;;16.04;65.13
56568;BME280;42456;49.956;20.004;2022-09-02T07:31:38;98796.50;;;16.12;64.67
56568;BME280;42456;49.956;20.004;2022-09-02T07:34:05;98797.45;;;16.19;64.81
56568;BME280;42456;49.956;20.004;2022-09-02T07:36:33;98795.05;;;16.24;63.87
56568;BME280;42456;49.956;20.004;2022-09-02T07:39:03;98797.41;;;16.25;63.42
56568;BME280;42456;49.956;20.004;2022-09-02T07:41:31;98800.18;;;16.29;63.44
56568;BME280;42456;49.956;20.004;2022-09-02T07:43:58;98805.00;;;16.35;63.68
56568;BME280;42456;49.956;20.004;2022-09-02T07:46:25;98801.93;;;16.37;62.93
56568;BME280;42456;49.956;20.004;2022-09-02T07:48:53;98793.64;;;16.39;63.14
56568;BME280;42456;49.956;20.004;2022-09-02T07:51:19;98797.92;;;16.46;62.91
56568;BME280;42456;49.956;20.004;2022-09-02T07:53:46;98803.14;;;16.55;63.05
56568;BME280;42456;49.956;20.004;2022-09-02T07:56:13;98795.44;;;16.57;62.39
56568;BME280;42456;49.956;20.004;2022-09-02T07:58:41;98786.44;;;16.62;62.56
56568;BME280;42456;49.956;20.004;2022-09-02T08:01:08;98787.46;;;16.73;63.15
56568;BME280;42456;49.956;20.004;2022-09-02T08:03:37;98782.37;;;16.81;62.59
56568;BME280;42456;49.956;20.004;2022-09-02T08:06:05;98788.25;;;16.93;62.70
56568;BME280;42456;49.956;20.004;2022-09-02T08:08:31;98784.16;;;17.03;61.99
56568;BME280;42456;49.956;20.004;2022-09-02T08:10:59;98793.03;;;17.09;61.07
56568;BME280;42456;49.956;20.004;2022-09-02T08:13:26;98790.95;;;17.12;61.27
56568;BME280;42456;49.956;20.004;2022-09-02T08:15:52;98786.61;;;17.17;60.84
56568;BME280;42456;49.956;20.004;2022-09-02T08:18:19;98783.02;;;17.23;60.60
56568;BME280;42456;49.956;20.004;2022-09-02T08:20:45;98793.02;;;17.28;61.04
56568;BME280;42456;49.956;20.004;2022-09-02T08:23:12;98789.80;;;17.32;60.29
56568;BME280;42456;49.956;20.004;2022-09-02T08:25:39;98780.93;;;17.35;59.08
56568;BME280;42456;49.956;20.004;2022-09-02T08:28:07;98796.29;;;17.37;59.43
56568;BME280;42456;49.956;20.004;2022-09-02T08:30:34;98791.73;;;17.41;59.31
56568;BME280;42456;49.956;20.004;2022-09-02T08:33:00;98781.52;;;17.44;59.12
56568;BME280;42456;49.956;20.004;2022-09-02T08:35:26;98788.64;;;17.43;57.76
56568;BME280;42456;49.956;20.004;2022-09-02T08:37:53;98786.77;;;17.37;57.46
56568;BME280;42456;49.956;20.004;2022-09-02T08:40:21;98775.54;;;17.39;58.86
56568;BME280;42456;49.956;20.004;2022-09-02T08:42:53;98789.72;;;17.48;58.62
56568;BME280;42456;49.956;20.004;2022-09-02T08:45:24;98782.16;;;17.47;57.71
56568;BME280;42456;49.956;20.004;2022-09-02T08:50:41;98782.88;;;17.44;57.68
56568;BME280;42456;49.956;20.004;2022-09-02T08:55:58;98772.48;;;17.50;57.72
56568;BME280;42456;49.956;20.004;2022-09-02T08:58:32;98780.00;;;17.47;56.07
56568;BME280;42456;49.956;20.004;2022-09-02T09:01:12;98766.56;;;17.44;55.52
56568;BME280;42456;49.956;20.004;2022-09-02T09:12:22;98765.50;;;17.62;55.46
56568;BME280;42456;49.956;20.004;2022-09-02T09:17:28;98773.66;;;17.62;53.25
56568;BME280;42456;49.956;20.004;2022-09-02T09:20:10;98756.25;;;17.66;53.56
56568;BME280;42456;49.956;20.004;2022-09-02T09:22:51;98755.53;;;17.69;53.80
56568;BME280;42456;49.956;20.004;2022-09-02T09:25:23;98756.44;;;17.77;54.32
56568;BME280;42456;49.956;20.004;2022-09-02T09:27:59;98757.03;;;17.89;53.99
56568;BME280;42456;49.956;20.004;2022-09-02T09:30:27;98752.33;;;17.99;54.22
56568;BME280;42456;49.956;20.004;2022-09-02T09:32:59;98756.58;;;18.10;53.68
56568;BME280;42456;49.956;20.004;2022-09-02T09:35:45;98754.69;;;18.14;53.35
56568;BME280;42456;49.956;20.004;2022-09-02T09:38:13;98744.48;;;18.20;53.05
56568;BME280;42456;49.956;20.004;2022-09-02T09:40:40;98764.17;;;18.23;52.62
56568;BME280;42456;49.956;20.004;2022-09-02T09:45:41;98748.30;;;18.42;53.01
56568;BME280;42456;49.956;20.004;2022-09-02T09:48:20;98755.43;;;18.50;51.32
56568;BME280;42456;49.956;20.004;2022-09-02T09:53:30;98747.71;;;18.55;50.69
56568;BME280;42456;49.956;20.004;2022-09-02T09:56:04;98744.00;;;18.54;50.47
56568;BME280;42456;49.956;20.004;2022-09-02T09:58:47;98740.88;;;18.52;50.38
56568;BME280;42456;49.956;20.004;2022-09-02T10:01:27;98741.50;;;18.55;49.96
56568;BME280;42456;49.956;20.004;2022-09-02T10:04:08;98746.16;;;18.54;50.02
56568;BME280;42456;49.956;20.004;2022-09-02T10:06:37;98739.91;;;18.54;50.45
56568;BME280;42456;49.956;20.004;2022-09-02T10:14:34;98751.45;;;18.44;49.22
56568;BME280;42456;49.956;20.004;2022-09-02T10:45:48;98722.95;;;18.81;46.26
56568;BME280;42456;49.956;20.004;2022-09-02T10:56:37;98716.89;;;18.81;46.62
56568;BME280;42456;49.956;20.004;2022-09-02T10:59:34;98738.68;;;18.94;47.12
56568;BME280;42456;49.956;20.004;2022-09-02T11:02:12;98723.95;;;19.02;46.36
56568;BME280;42456;49.956;20.004;2022-09-02T11:05:05;98720.91;;;19.07;45.17
56568;BME280;42456;49.956;20.004;2022-09-02T11:08:17;98720.48;;;19.05;46.24
56568;BME280;42456;49.956;20.004;2022-09-02T11:10:27;98710.20;;;19.08;45.28
56568;BME280;42456;49.956;20.004;2022-09-02T11:16:01;98705.34;;;19.08;44.81
56568;BME280;42456;49.956;20.004;2022-09-02T11:27:28;98703.38;;;19.08;46.25
56568;BME280;42456;49.956;20.004;2022-09-02T11:30:07;98703.42;;;19.12;44.88
56568;BME280;42456;49.956;20.004;2022-09-02T11:35:31;98687.63;;;19.11;44.30
56568;BME280;42456;49.956;20.004;2022-09-02T11:38:01;98688.25;;;19.14;43.61
56568;BME280;42456;49.956;20.004;2022-09-02T11:54:52;98694.26;;;19.27;42.99
56568;BME280;42456;49.956;20.004;2022-09-02T11:57:22;98682.03;;;19.30;44.07
56568;BME280;42456;49.956;20.004;2022-09-02T12:02:45;98696.33;;;19.40;42.68
56568;BME280;42456;49.956;20.004;2022-09-02T12:08:10;98686.08;;;19.47;43.01
56568;BME280;42456;49.956;20.004;2022-09-02T12:21:26;98669.34;;;19.75;42.99
56568;BME280;42456;49.956;20.004;2022-09-02T12:26:29;98671.77;;;19.64;41.77
56568;BME280;42456;49.956;20.004;2022-09-02T12:31:51;98657.48;;;19.54;42.42
56568;BME280;42456;49.956;20.004;2022-09-02T12:37:00;98654.72;;;19.74;42.07
56568;BME280;42456;49.956;20.004;2022-09-02T12:42:16;98645.92;;;19.74;41.51
56568;BME280;42456;49.956;20.004;2022-09-02T12:50:57;98634.70;;;19.86;41.44
56568;BME280;42456;49.956;20.004;2022-09-02T12:52:47;98634.58;;;19.96;42.15
56568;BME280;42456;49.956;20.004;2022-09-02T12:55:21;98632.29;;;20.05;40.63
56568;BME280;42456;49.956;20.004;2022-09-02T12:57:54;98639.72;;;20.08;41.57
56568;BME280;42456;49.956;20.004;2022-09-02T13:06:39;98625.66;;;20.06;41.55
56568;BME280;42456;49.956;20.004;2022-09-02T13:12:14;98619.34;;;19.91;41.23
56568;BME280;42456;49.956;20.004;2022-09-02T13:17:47;98622.19;;;19.78;41.71
56568;BME280;42456;49.956;20.004;2022-09-02T13:20:45;98627.05;;;19.75;41.73
56568;BME280;42456;49.956;20.004;2022-09-02T13:23:31;98620.61;;;19.77;41.88
56568;BME280;42456;49.956;20.004;2022-09-02T13:29:22;98613.81;;;19.81;41.71
56568;BME280;42456;49.956;20.004;2022-09-02T13:34:44;98603.91;;;19.86;41.72
56568;BME280;42456;49.956;20.004;2022-09-02T13:39:56;98621.66;;;19.86;42.19
56568;BME280;42456;49.956;20.004;2022-09-02T13:42:26;98620.45;;;19.83;41.84
56568;BME280;42456;49.956;20.004;2022-09-02T13:47:47;98618.48;;;19.80;41.72
56568;BME280;42456;49.956;20.004;2022-09-02T13:50:17;98613.59;;;19.76;41.94
56568;BME280;42456;49.956;20.004;2022-09-02T13:52:48;98613.02;;;19.77;41.76
56568;BME280;42456;49.956;20.004;2022-09-02T13:55:19;98602.30;;;19.78;42.62
56568;BME280;42456;49.956;20.004;2022-09-02T13:58:03;98607.59;;;19.84;42.64
56568;BME280;42456;49.956;20.004;2022-09-02T14:00:40;98603.88;;;19.82;42.21
56568;BME280;42456;49.956;20.004;2022-09-02T14:03:10;98610.70;;;19.82;42.06
56568;BME280;42456;49.956;20.004;2022-09-02T14:05:48;98604.64;;;19.79;41.20
56568;BME280;42456;49.956;20.004;2022-09-02T14:08:19;98603.09;;;19.78;41.93
56568;BME280;42456;49.956;20.004;2022-09-02T14:10:50;98599.98;;;19.83;41.40
56568;BME280;42456;49.956;20.004;2022-09-02T14:13:18;98600.80;;;19.87;41.44
56568;BME280;42456;49.956;20.004;2022-09-02T14:15:46;98601.56;;;19.88;41.26
56568;BME280;42456;49.956;20.004;2022-09-02T14:18:20;98607.02;;;19.88;41.73
56568;BME280;42456;49.956;20.004;2022-09-02T14:21:09;98598.83;;;19.88;41.82
56568;BME280;42456;49.956;20.004;2022-09-02T14:23:38;98595.91;;;19.87;41.74
56568;BME280;42456;49.956;20.004;2022-09-02T14:26:07;98595.72;;;19.86;42.13
56568;BME280;42456;49.956;20.004;2022-09-02T14:28:34;98598.04;;;19.84;42.01
56568;BME280;42456;49.956;20.004;2022-09-02T14:31:04;98598.39;;;19.79;42.19
56568;BME280;42456;49.956;20.004;2022-09-02T14:33:38;98593.69;;;19.76;41.95
56568;BME280;42456;49.956;20.004;2022-09-02T14:38:55;98598.70;;;19.67;41.95
56568;BME280;42456;49.956;20.004;2022-09-02T14:41:25;98595.78;;;19.66;42.20
56568;BME280;42456;49.956;20.004;2022-09-02T14:44:12;98596.58;;;19.70;42.00
56568;BME280;42456;49.956;20.004;2022-09-02T14:46:46;98588.97;;;19.66;41.98
56568;BME280;42456;49.956;20.004;2022-09-02T14:51:57;98591.13;;;19.66;42.16
56568;BME280;42456;49.956;20.004;2022-09-02T14:54:40;98580.20;;;19.66;42.27
56568;BME280;42456;49.956;20.004;2022-09-02T14:57:25;98580.81;;;19.69;43.03
56568;BME280;42456;49.956;20.004;2022-09-02T14:59:56;98578.27;;;19.70;42.73
56568;BME280;42456;49.956;20.004;2022-09-02T15:04:59;98585.63;;;19.63;42.61
56568;BME280;42456;49.956;20.004;2022-09-02T15:07:30;98582.48;;;19.61;42.89
56568;BME280;42456;49.956;20.004;2022-09-02T15:09:57;98582.87;;;19.59;42.19
56568;BME280;42456;49.956;20.004;2022-09-02T15:14:59;98580.67;;;19.52;42.69
56568;BME280;42456;49.956;20.004;2022-09-02T15:17:26;98582.80;;;19.49;42.63
56568;BME280;42456;49.956;20.004;2022-09-02T15:19:54;98584.34;;;19.46;42.83
56568;BME280;42456;49.956;20.004;2022-09-02T15:22:21;98580.82;;;19.42;42.73
56568;BME280;42456;49.956;20.004;2022-09-02T15:24:47;98585.83;;;19.37;42.93
56568;BME280;42456;49.956;20.004;2022-09-02T15:27:14;98581.73;;;19.33;43.43
56568;BME280;42456;49.956;20.004;2022-09-02T15:29:41;98576.66;;;19.32;43.25
56568;BME280;42456;49.956;20.004;2022-09-02T15:32:08;98572.72;;;19.29;43.17
56568;BME280;42456;49.956;20.004;2022-09-02T15:34:34;98573.31;;;19.29;43.67
56568;BME280;42456;49.956;20.004;2022-09-02T15:37:00;98572.91;;;19.27;43.90
56568;BME280;42456;49.956;20.004;2022-09-02T15:39:27;98581.63;;;19.26;44.00
56568;BME280;42456;49.956;20.004;2022-09-02T15:41:55;98581.02;;;19.23;43.92
56568;BME280;42456;49.956;20.004;2022-09-02T15:44:25;98582.38;;;19.23;44.43
56568;BME280;42456;49.956;20.004;2022-09-02T15:46:51;98579.45;;;19.22;44.28
56568;BME280;42456;49.956;20.004;2022-09-02T15:49:18;98580.02;;;19.18;44.31